Merlin, Oregon
Current Conditions -  °F | °C
As of 8:56 AM on Thursday 30 Oct 2014 (Local Time) from KSXT Reporting Station
Broken Clouds Broken Clouds  
Wind Chill: 51°   Ceiling: 200
Heat Index: 51°   Visibility: 10mi
Dew Point: 51°   Wind: 9mph
Humidity: 100%   Direction: 170°S
Pressure: 29.95"   Gusts: NA
Location:  42.52°N, 123.42°W
Report Text: KSXT 301556Z AUTO 17008KT 10SM BKN002 11/11 A2995 RMK AO2 SLP125 T01060106
Loading
Personal Weather Stations






























Interactive Weather Map
Tropical Storm Tracking
New forecast layout! Learn more

10-Day Weather Forecast

Advertisements
Track Severe Weather on mobile